Time;durP1;ratioP1;P1;durP2;ratioP2;P2;SDS_P1;SDS_P2;PMS_P1;PMS_P2;Temp;Humidity;BMP_temperature;BMP_pressure;BME280_temperature;BME280_humidity;BME280_pressure;Samples;Min_cycle;Max_cycle;Signal;HPM_P1;HPM_P2
2022/12/22 03:26:22;;;;;;;91.30;28.20;;;8.10;99.90;;;;;;5105894;28;22386;-66
2022/12/22 03:28:47;;;;;;;103.63;30.95;;;8.10;99.90;;;;;;5108308;28;20063;-65
2022/12/22 03:31:13;;;;;;;117.50;30.58;;;8.10;99.90;;;;;;5090139;28;20470;-66
2022/12/22 03:33:39;;;;;;;85.35;28.63;;;8.10;99.90;;;;;;5089691;28;20042;-66
2022/12/22 03:36:06;;;;;;;94.45;29.65;;;8.20;99.90;;;;;;5107628;28;20055;-66
2022/12/22 03:38:31;;;;;;;99.18;29.88;;;8.10;99.90;;;;;;5107644;28;20060;-65
2022/12/22 03:40:57;;;;;;;106.10;30.23;;;8.20;99.90;;;;;;5100187;28;20125;-65
2022/12/22 03:46:30;;;;;;;103.10;31.05;;;8.10;99.90;;;;;;5091341;28;20047;-65
2022/12/22 03:49:09;;;;;;;109.55;32.15;;;8.20;99.90;;;;;;5109220;28;20039;-66
2022/12/22 03:51:38;;;;;;;127.22;34.42;;;8.20;99.90;;;;;;5102372;28;20444;-65
2022/12/22 03:54:03;;;;;;;106.15;30.42;;;8.20;99.90;;;;;;5106757;28;20047;-66
2022/12/22 03:56:29;;;;;;;122.43;32.90;;;8.20;99.90;;;;;;5109898;28;21009;-66
2022/12/22 03:58:55;;;;;;;110.32;33.13;;;8.20;99.90;;;;;;5104473;28;20122;-66
2022/12/22 04:01:20;;;;;;;111.60;31.83;;;8.20;99.90;;;;;;5089471;28;20043;-65
2022/12/22 04:03:48;;;;;;;103.57;32.10;;;8.20;99.90;;;;;;5091462;28;20035;-66
2022/12/22 04:06:14;;;;;;;125.43;33.15;;;8.20;99.90;;;;;;5105405;28;20039;-66
2022/12/22 04:08:40;;;;;;;114.80;32.40;;;8.20;99.90;;;;;;5089105;28;20047;-66
2022/12/22 04:13:49;;;;;;;101.15;31.38;;;8.20;99.90;;;;;;5080506;28;20475;-66
2022/12/22 04:16:15;;;;;;;125.65;31.75;;;8.20;99.90;;;;;;5100293;28;20056;-66
2022/12/22 04:18:40;;;;;;;126.93;32.38;;;8.20;99.90;;;;;;5101640;28;20032;-67
2022/12/22 04:21:06;;;;;;;108.95;31.80;;;8.20;99.90;;;;;;5101255;28;20159;-67
2022/12/22 04:23:31;;;;;;;100.80;29.27;;;8.20;99.90;;;;;;5082846;28;20075;-66
2022/12/22 04:25:58;;;;;;;100.43;30.20;;;8.20;99.90;;;;;;5085430;28;20031;-65
2022/12/22 04:28:24;;;;;;;120.30;31.23;;;8.20;99.90;;;;;;5105145;28;20088;-66
2022/12/22 04:30:50;;;;;;;94.03;28.42;;;8.20;99.90;;;;;;5100939;28;20555;-66
2022/12/22 04:33:16;;;;;;;143.52;33.28;;;8.20;99.90;;;;;;5101862;28;20056;-66
2022/12/22 04:35:42;;;;;;;83.78;26.48;;;8.10;99.90;;;;;;5100176;28;20051;-66
2022/12/22 04:38:07;;;;;;;131.85;30.25;;;8.10;99.90;;;;;;5102438;28;20031;-67
2022/12/22 04:40:33;;;;;;;68.05;24.42;;;8.20;99.90;;;;;;5101723;28;20051;-67
2022/12/22 04:42:58;;;;;;;155.57;32.80;;;8.20;99.90;;;;;;5087816;28;20047;-66
2022/12/22 04:45:24;;;;;;;105.40;27.83;;;8.10;99.90;;;;;;5100772;28;20159;-67
2022/12/22 04:47:49;;;;;;;140.05;30.90;;;8.30;99.90;;;;;;5082802;28;20078;-67
2022/12/22 04:50:15;;;;;;;64.75;23.05;;;8.20;99.90;;;;;;5103728;28;20043;-67
2022/12/22 04:52:41;;;;;;;107.80;25.67;;;8.30;99.90;;;;;;5106542;28;20035;-66
2022/12/22 04:55:08;;;;;;;67.07;23.80;;;8.20;99.90;;;;;;5082872;28;20039;-67
2022/12/22 04:57:34;;;;;;;91.18;25.33;;;8.30;99.90;;;;;;5100329;28;20081;-66
2022/12/22 05:00:00;;;;;;;103.35;27.65;;;8.20;99.90;;;;;;5104237;28;20416;-66
2022/12/22 05:02:25;;;;;;;93.03;26.17;;;8.20;99.90;;;;;;5106431;28;20110;-66
2022/12/22 05:04:51;;;;;;;93.70;24.05;;;8.10;99.90;;;;;;5089524;28;20040;-66
2022/12/22 05:07:16;;;;;;;119.18;28.20;;;8.20;99.90;;;;;;5080964;28;20035;-67
2022/12/22 05:09:42;;;;;;;105.45;26.58;;;8.10;99.90;;;;;;5103788;28;20043;-66
2022/12/22 05:14:52;;;;;;;101.25;24.63;;;8.10;99.90;;;;;;5104039;28;20058;-66
2022/12/22 05:17:17;;;;;;;98.80;24.73;;;8.10;99.90;;;;;;5107012;28;20051;-65
2022/12/22 05:19:43;;;;;;;84.88;23.00;;;8.10;99.90;;;;;;5107707;28;20031;-66
2022/12/22 05:22:08;;;;;;;87.18;24.55;;;8.10;99.90;;;;;;5102450;28;20085;-65
2022/12/22 05:24:34;;;;;;;70.57;22.08;;;8.10;99.90;;;;;;5081292;28;20432;-66
2022/12/22 05:26:59;;;;;;;57.67;19.08;;;8.00;99.90;;;;;;5082308;28;20035;-65
2022/12/22 05:29:25;;;;;;;64.40;19.75;;;8.10;99.90;;;;;;5081746;28;20040;-65
2022/12/22 05:31:51;;;;;;;84.53;23.65;;;8.10;99.90;;;;;;5101093;28;20050;-65
2022/12/22 05:34:16;;;;;;;96.18;24.00;;;8.00;99.90;;;;;;5103007;28;20069;-66
2022/12/22 05:36:42;;;;;;;73.88;21.02;;;8.10;99.90;;;;;;5100643;28;20035;-67
2022/12/22 05:39:07;;;;;;;78.63;22.25;;;8.00;99.90;;;;;;5101365;28;20489;-65
2022/12/22 05:41:33;;;;;;;54.75;18.70;;;8.10;99.90;;;;;;5099890;28;20035;-66
2022/12/22 05:43:59;;;;;;;93.88;22.70;;;8.10;99.90;;;;;;5065771;28;20455;-66
2022/12/22 05:46:24;;;;;;;66.22;18.75;;;8.10;99.90;;;;;;5099292;28;20073;-65
2022/12/22 05:48:50;;;;;;;66.40;19.25;;;8.10;99.90;;;;;;5101967;28;20036;-66
2022/12/22 05:51:15;;;;;;;55.35;18.38;;;8.00;99.90;;;;;;5100278;28;20061;-67
2022/12/22 05:53:41;;;;;;;64.05;18.77;;;8.10;99.90;;;;;;5098847;28;20036;-65
2022/12/22 05:56:07;;;;;;;111.63;24.33;;;8.10;99.90;;;;;;5100536;28;20039;-66
2022/12/22 05:58:33;;;;;;;56.08;18.38;;;8.10;99.90;;;;;;5078356;28;20127;-66
2022/12/22 06:00:59;;;;;;;78.60;20.80;;;8.20;99.90;;;;;;5104864;28;20066;-65
2022/12/22 06:03:26;;;;;;;61.33;18.05;;;8.10;99.90;;;;;;5085160;28;20844;-66
2022/12/22 06:05:52;;;;;;;68.70;18.92;;;8.10;99.90;;;;;;5097672;28;20082;-66
2022/12/22 06:08:18;;;;;;;84.93;21.70;;;8.10;99.90;;;;;;5081727;28;20546;-65
2022/12/22 06:10:43;;;;;;;85.85;21.67;;;8.10;99.90;;;;;;5098920;28;20044;-67
2022/12/22 06:13:09;;;;;;;102.30;23.38;;;8.20;99.90;;;;;;5099539;28;20414;-67
2022/12/22 06:15:34;;;;;;;88.93;23.70;;;8.10;99.90;;;;;;5101446;28;20051;-67
2022/12/22 06:18:00;;;;;;;85.95;24.15;;;8.20;99.90;;;;;;5102119;28;20112;-66
2022/12/22 06:20:25;;;;;;;86.15;22.70;;;8.20;99.90;;;;;;5096101;28;20043;-65
2022/12/22 06:22:51;;;;;;;88.57;24.42;;;8.20;99.90;;;;;;5062526;28;20036;-66
2022/12/22 06:25:17;;;;;;;120.90;26.27;;;8.20;99.90;;;;;;5083474;28;20039;-67
2022/12/22 06:27:42;;;;;;;109.88;25.27;;;8.10;99.90;;;;;;5104410;28;20115;-67
2022/12/22 06:30:08;;;;;;;113.13;26.38;;;8.10;99.90;;;;;;5101622;28;20036;-66
2022/12/22 06:32:38;;;;;;;119.28;27.27;;;8.10;99.90;;;;;;5086377;28;20162;-65
2022/12/22 06:35:04;;;;;;;96.28;25.05;;;8.10;99.90;;;;;;5085342;28;20676;-65
2022/12/22 06:37:30;;;;;;;99.03;24.60;;;8.00;99.90;;;;;;5099678;28;20172;-65
2022/12/22 06:39:56;;;;;;;109.13;25.15;;;8.00;99.90;;;;;;5097734;28;20115;-66
2022/12/22 06:45:06;;;;;;;106.40;24.88;;;8.00;99.90;;;;;;5107804;28;20442;-67
2022/12/22 06:47:32;;;;;;;99.97;24.27;;;8.00;99.90;;;;;;5105274;28;20409;-65
2022/12/22 06:49:57;;;;;;;111.45;25.33;;;7.90;99.90;;;;;;5088077;28;20040;-65
2022/12/22 06:52:23;;;;;;;135.57;28.05;;;7.90;99.90;;;;;;5085155;28;20040;-66
2022/12/22 06:54:49;;;;;;;120.47;24.15;;;7.80;99.90;;;;;;5063748;28;20083;-66
2022/12/22 06:57:14;;;;;;;103.82;24.25;;;7.70;99.90;;;;;;5089247;28;20538;-66
2022/12/22 06:59:40;;;;;;;93.60;24.10;;;7.80;99.90;;;;;;5104360;28;20027;-66
2022/12/22 07:02:06;;;;;;;113.95;25.25;;;7.70;99.90;;;;;;5085832;28;20036;-66
2022/12/22 07:04:31;;;;;;;96.03;23.38;;;7.60;99.90;;;;;;5108842;28;20560;-65
2022/12/22 07:06:57;;;;;;;83.43;22.42;;;7.60;99.90;;;;;;5085700;28;20071;-66
2022/12/22 07:09:23;;;;;;;104.43;22.15;;;7.40;99.90;;;;;;5102912;28;20380;-65
2022/12/22 07:11:48;;;;;;;101.22;22.25;;;7.30;99.90;;;;;;5104343;28;20086;-65
2022/12/22 07:14:14;;;;;;;65.05;19.88;;;7.20;99.90;;;;;;5103214;28;20100;-65
2022/12/22 07:16:40;;;;;;;95.88;21.77;;;7.10;99.90;;;;;;5068309;28;20605;-65
2022/12/22 07:19:05;;;;;;;95.88;21.73;;;7.00;99.90;;;;;;5103629;28;20127;-65
2022/12/22 07:21:31;;;;;;;77.65;18.88;;;6.80;99.90;;;;;;5101745;28;20085;-65
2022/12/22 07:23:57;;;;;;;50.00;13.60;;;6.70;99.90;;;;;;5082914;28;20130;-65
2022/12/22 07:26:22;;;;;;;81.00;19.00;;;6.70;99.90;;;;;;5101571;28;20085;-66
2022/12/22 07:28:48;;;;;;;59.53;17.45;;;6.50;99.90;;;;;;5100168;28;20035;-65
2022/12/22 07:31:16;;;;;;;114.45;19.88;;;6.50;99.90;;;;;;5103734;28;20176;-65
2022/12/22 07:33:41;;;;;;;106.72;16.70;;;6.50;99.90;;;;;;5104875;28;20040;-65
2022/12/22 07:36:16;;;;;;;95.15;17.65;;;6.20;99.90;;;;;;5085934;28;20038;-65
2022/12/22 07:38:43;;;;;;;52.65;13.82;;;6.30;99.90;;;;;;5110024;28;20566;-66
2022/12/22 07:43:57;;;;;;;56.72;15.23;;;6.10;99.90;;;;;;5109229;28;20047;-65
2022/12/22 07:46:24;;;;;;;64.72;16.75;;;6.10;99.90;;;;;;5109399;28;20040;-65
2022/12/22 07:51:36;;;;;;;56.65;13.82;;;5.90;99.90;;;;;;5083671;28;20048;-65
2022/12/22 07:54:04;;;;;;;39.20;12.52;;;6.00;99.90;;;;;;5097975;28;20596;-65
2022/12/22 07:56:30;;;;;;;46.90;14.43;;;5.90;99.90;;;;;;5095657;28;20970;-65
2022/12/22 07:58:56;;;;;;;66.68;17.23;;;6.00;99.90;;;;;;5064707;28;20040;-64
2022/12/22 08:01:22;;;;;;;74.40;18.17;;;6.10;99.90;;;;;;5095353;28;20475;-65
2022/12/22 08:03:47;;;;;;;61.65;17.90;;;6.20;99.90;;;;;;5100414;28;20115;-65
2022/12/22 08:06:13;;;;;;;84.88;21.02;;;6.20;99.90;;;;;;5096854;28;20118;-65
2022/12/22 08:08:39;;;;;;;98.72;21.83;;;6.50;99.90;;;;;;5078933;28;20043;-67
2022/12/22 08:11:05;;;;;;;94.80;22.13;;;6.40;99.90;;;;;;5075500;28;20036;-66
2022/12/22 08:13:31;;;;;;;106.85;22.40;;;6.50;99.90;;;;;;5098358;28;20064;-66
2022/12/22 08:16:03;;;;;;;90.38;21.67;;;6.60;99.90;;;;;;5080830;28;20612;-65
2022/12/22 08:18:29;;;;;;;86.72;20.65;;;6.60;99.90;;;;;;5074450;28;20089;-66
2022/12/22 08:20:55;;;;;;;91.47;21.10;;;6.70;99.90;;;;;;5086249;28;20529;-65
2022/12/22 08:23:20;;;;;;;81.80;21.35;;;6.60;99.90;;;;;;5094290;28;20061;-65
2022/12/22 08:25:50;;;;;;;92.13;20.85;;;6.70;99.90;;;;;;5094706;28;20036;-66
2022/12/22 08:28:16;;;;;;;91.80;20.70;;;6.60;99.90;;;;;;5097578;28;20518;-65
2022/12/22 08:30:44;;;;;;;79.30;19.42;;;6.70;99.90;;;;;;5103785;28;20432;-65
2022/12/22 08:33:09;;;;;;;88.13;21.50;;;6.60;99.90;;;;;;5090037;28;20036;-65
2022/12/22 08:35:35;;;;;;;73.15;19.92;;;6.60;99.90;;;;;;5109558;28;20376;-67
2022/12/22 08:38:01;;;;;;;76.43;19.52;;;6.60;99.90;;;;;;5088269;28;20051;-66
2022/12/22 08:40:31;;;;;;;73.50;18.40;;;6.70;99.90;;;;;;5089187;28;20035;-65
2022/12/22 08:43:01;;;;;;;73.50;19.10;;;6.70;99.90;;;;;;5092590;28;20048;-65
2022/12/22 08:45:26;;;;;;;82.43;20.73;;;6.60;99.90;;;;;;5109660;28;20390;-65
2022/12/22 08:47:52;;;;;;;75.20;18.52;;;6.70;99.90;;;;;;5111382;28;20040;-65
2022/12/22 08:50:17;;;;;;;60.10;17.40;;;6.80;99.90;;;;;;5110881;28;20034;-65
2022/12/22 08:52:43;;;;;;;69.57;19.52;;;6.70;99.90;;;;;;5091955;28;20118;-66
2022/12/22 08:55:09;;;;;;;71.40;17.98;;;6.80;99.90;;;;;;5110335;28;20047;-66
2022/12/22 08:57:34;;;;;;;105.68;21.00;;;6.80;99.90;;;;;;5110428;28;20482;-65
2022/12/22 09:00:00;;;;;;;76.78;17.30;;;6.70;99.90;;;;;;5107476;28;20044;-65
2022/12/22 09:02:26;;;;;;;66.00;16.92;;;6.80;99.90;;;;;;5108300;28;20054;-65
2022/12/22 09:04:51;;;;;;;69.43;18.33;;;6.70;99.90;;;;;;5093211;28;20048;-66
2022/12/22 09:07:17;;;;;;;77.35;17.38;;;6.70;99.90;;;;;;5108109;28;20040;-65
2022/12/22 09:09:44;;;;;;;74.15;18.05;;;6.60;99.90;;;;;;5097016;28;20043;-66
2022/12/22 09:12:10;;;;;;;66.60;16.65;;;6.60;99.90;;;;;;5106840;28;20084;-65
2022/12/22 09:14:35;;;;;;;60.33;16.52;;;6.50;99.90;;;;;;5111402;28;20048;-66
2022/12/22 09:17:01;;;;;;;63.03;16.85;;;6.50;99.90;;;;;;5110934;28;20112;-65
2022/12/22 09:19:27;;;;;;;58.55;16.63;;;6.60;99.90;;;;;;5110110;28;20035;-65
2022/12/22 09:21:53;;;;;;;70.30;17.02;;;6.60;99.90;;;;;;5108248;28;20042;-65
2022/12/22 09:24:19;;;;;;;59.78;16.88;;;6.60;99.90;;;;;;5112564;28;20399;-64
2022/12/22 09:26:44;;;;;;;65.00;16.27;;;6.50;99.90;;;;;;5108598;28;20045;-64
2022/12/22 09:29:14;;;;;;;54.63;15.45;;;6.50;99.90;;;;;;5111729;28;20832;-65
2022/12/22 09:31:40;;;;;;;69.20;15.98;;;6.40;99.90;;;;;;5109420;28;20035;-65
2022/12/22 09:34:06;;;;;;;63.28;16.45;;;6.50;99.90;;;;;;5092691;28;20036;-65
2022/12/22 09:36:32;;;;;;;66.90;16.52;;;6.40;99.90;;;;;;5108809;28;20039;-65
2022/12/22 09:39:03;;;;;;;61.00;15.55;;;6.50;99.90;;;;;;5110553;28;20040;-65
2022/12/22 09:41:56;;;;;;;55.83;15.05;;;6.40;99.90;;;;;;5106332;28;20532;-66
2022/12/22 09:44:32;;;;;;;61.60;15.68;;;6.50;99.90;;;;;;5107918;28;20628;-66
2022/12/22 09:47:01;;;;;;;52.83;15.82;;;6.40;99.90;;;;;;5110806;28;20039;-65
2022/12/22 09:49:27;;;;;;;69.65;16.20;;;6.50;99.90;;;;;;5105115;28;20352;-66
2022/12/22 09:51:58;;;;;;;51.92;14.88;;;6.50;99.90;;;;;;5110146;28;20046;-65
2022/12/22 09:54:26;;;;;;;55.22;14.45;;;6.60;99.90;;;;;;5090583;28;20039;-64
2022/12/22 09:56:51;;;;;;;51.83;15.07;;;6.60;99.90;;;;;;5110335;28;20073;-65
2022/12/22 09:59:20;;;;;;;47.67;14.38;;;6.50;99.90;;;;;;5108662;28;20459;-65
2022/12/22 10:02:14;;;;;;;48.60;13.68;;;6.50;99.90;;;;;;5091760;28;20028;-64
2022/12/22 10:05:03;;;;;;;53.30;14.05;;;6.50;99.90;;;;;;5105796;28;20070;-64
2022/12/22 10:07:35;;;;;;;35.17;12.45;;;6.60;99.90;;;;;;5087905;28;20054;-65
2022/12/22 10:10:26;;;;;;;35.42;11.30;;;6.40;99.90;;;;;;5104808;28;20114;-65
2022/12/22 10:12:55;;;;;;;43.92;11.40;;;6.40;99.90;;;;;;5109402;28;20079;-65
2022/12/22 10:15:21;;;;;;;33.90;11.65;;;6.40;99.90;;;;;;5110726;28;20067;-64
2022/12/22 10:17:49;;;;;;;40.88;11.93;;;6.30;99.90;;;;;;5106532;28;20067;-66
2022/12/22 10:20:20;;;;;;;30.58;10.85;;;6.30;99.90;;;;;;5106148;28;20044;-65
2022/12/22 10:23:05;;;;;;;35.88;11.30;;;6.30;99.90;;;;;;5102089;28;20598;-64
2022/12/22 10:25:35;;;;;;;33.72;10.82;;;6.40;99.90;;;;;;5094145;28;20028;-65
2022/12/22 10:28:07;;;;;;;;;;;6.30;99.90;;;;;;5096421;28;20531;-65
2022/12/22 10:30:35;;;;;;;34.20;11.15;;;6.60;99.90;;;;;;5097411;28;20398;-66
2022/12/22 10:33:13;;;;;;;39.42;11.82;;;6.60;99.90;;;;;;5103155;28;20154;-65
2022/12/22 10:35:43;;;;;;;33.63;11.43;;;6.60;99.90;;;;;;5099551;28;20489;-65
2022/12/22 10:38:29;;;;;;;;;;;6.60;99.90;;;;;;5100291;28;20039;-65
2022/12/22 10:41:07;;;;;;;27.30;10.20;;;6.60;99.90;;;;;;5108363;28;20366;-65
2022/12/22 10:43:39;;;;;;;34.50;10.38;;;6.70;99.90;;;;;;5099363;28;20122;-65
2022/12/22 10:46:05;;;;;;;28.50;9.70;;;6.80;99.90;;;;;;5097057;28;20047;-65
2022/12/22 10:48:36;;;;;;;27.92;9.48;;;6.60;99.90;;;;;;5105883;28;20118;-64
2022/12/22 10:51:05;;;;;;;37.25;10.65;;;6.60;99.90;;;;;;5105548;28;20050;-66
2022/12/22 10:53:44;;;;;;;28.50;10.18;;;6.80;99.90;;;;;;5106362;28;20058;-64
2022/12/22 10:56:29;;;;;;;24.80;10.32;;;6.70;99.90;;;;;;5109537;28;20024;-65
2022/12/22 10:59:29;;;;;;;31.98;11.55;;;6.90;99.90;;;;;;5108141;28;20086;-66
2022/12/22 11:02:20;;;;;;;37.22;10.02;;;6.90;99.90;;;;;;5075188;28;20076;-65
2022/12/22 11:04:46;;;;;;;32.33;10.20;;;7.00;99.90;;;;;;5105277;28;20100;-64
2022/12/22 11:07:12;;;;;;;34.08;10.88;;;7.00;99.90;;;;;;5085024;28;20044;-65
2022/12/22 11:09:37;;;;;;;31.10;10.48;;;7.00;99.90;;;;;;5106527;28;20043;-65
2022/12/22 11:12:14;;;;;;;27.20;10.23;;;6.90;99.90;;;;;;5109008;28;20649;-65
2022/12/22 11:14:49;;;;;;;25.65;8.98;;;6.90;99.90;;;;;;5104192;28;20527;-66
2022/12/22 11:17:30;;;;;;;29.30;9.60;;;7.00;99.90;;;;;;5103907;28;20055;-65
2022/12/22 11:20:15;;;;;;;24.88;9.35;;;7.10;99.90;;;;;;5111732;28;20042;-66
2022/12/22 11:22:44;;;;;;;24.83;9.27;;;7.20;99.90;;;;;;5088993;28;20060;-65
2022/12/22 11:25:13;;;;;;;28.95;10.02;;;7.10;99.90;;;;;;5104213;28;20720;-65
2022/12/22 11:28:01;;;;;;;24.55;9.35;;;7.20;99.90;;;;;;5105091;28;20040;-65
2022/12/22 11:30:43;;;;;;;27.50;9.52;;;7.20;99.90;;;;;;5105959;28;20081;-65
2022/12/22 11:33:35;;;;;;;31.52;9.88;;;7.20;99.90;;;;;;5107409;28;20039;-66
2022/12/22 11:36:03;;;;;;;27.73;9.05;;;7.10;99.90;;;;;;5108287;28;20039;-65
2022/12/22 11:38:48;;;;;;;25.25;8.95;;;7.10;99.90;;;;;;5108459;28;20533;-66
2022/12/22 11:41:58;;;;;;;26.33;9.77;;;7.10;99.90;;;;;;5109204;28;20050;-66
2022/12/22 11:44:39;;;;;;;27.63;9.65;;;7.10;99.90;;;;;;5113313;28;20047;-66
2022/12/22 11:47:28;;;;;;;27.05;9.70;;;7.10;99.90;;;;;;5097465;28;20039;-66
2022/12/22 11:50:21;;;;;;;25.88;9.00;;;7.20;99.90;;;;;;5115067;28;20043;-65
2022/12/22 11:53:15;;;;;;;27.45;9.05;;;7.10;99.90;;;;;;5093811;28;20046;-65
2022/12/22 11:56:08;;;;;;;26.13;9.95;;;7.20;99.90;;;;;;5096495;28;20039;-66
2022/12/22 11:59:06;;;;;;;21.35;9.82;;;7.30;99.90;;;;;;5096441;28;20086;-66
2022/12/22 12:02:08;;;;;;;22.65;8.25;;;7.40;99.90;;;;;;5112425;28;20036;-66
2022/12/22 12:04:52;;;;;;;17.95;7.65;;;7.40;99.90;;;;;;5089710;28;20437;-64
2022/12/22 12:07:35;;;;;;;20.98;7.78;;;7.30;99.90;;;;;;5113867;28;20077;-65
2022/12/22 12:10:27;;;;;;;22.38;9.18;;;7.40;99.90;;;;;;5096642;28;20126;-66
2022/12/22 12:13:32;;;;;;;22.08;7.70;;;7.40;99.90;;;;;;5111897;28;20039;-65
2022/12/22 12:16:21;;;;;;;21.48;8.38;;;7.40;99.90;;;;;;5076695;28;20048;-65
2022/12/22 12:19:11;;;;;;;20.52;7.82;;;7.30;99.90;;;;;;5094720;28;20042;-66
2022/12/22 12:21:48;;;;;;;19.60;8.20;;;7.30;99.90;;;;;;5100919;28;20040;-66
2022/12/22 12:24:21;;;;;;;18.23;7.65;;;7.20;99.90;;;;;;5114309;28;20083;-67
2022/12/22 12:27:34;;;;;;;20.67;7.32;;;7.20;99.90;;;;;;5114231;28;20063;-66
2022/12/22 12:30:18;;;;;;;21.88;8.00;;;7.20;99.90;;;;;;5107813;28;20059;-65
2022/12/22 12:32:59;;;;;;;18.58;7.80;;;7.20;99.90;;;;;;5112993;28;20039;-65
2022/12/22 12:35:30;;;;;;;23.27;8.25;;;7.20;99.90;;;;;;5113620;28;20101;-65
2022/12/22 12:38:06;;;;;;;18.17;8.02;;;7.20;99.90;;;;;;5113916;28;20046;-65
2022/12/22 12:40:48;;;;;;;22.63;8.23;;;7.30;99.90;;;;;;5113934;28;20040;-64
2022/12/22 12:43:14;;;;;;;16.42;8.25;;;7.30;99.90;;;;;;5112587;28;20533;-65
2022/12/22 12:45:43;;;;;;;19.30;7.47;;;7.40;99.90;;;;;;5113183;28;20348;-67
2022/12/22 12:48:23;;;;;;;20.65;7.93;;;7.40;99.90;;;;;;5114424;28;20043;-64
2022/12/22 12:50:53;;;;;;;19.45;7.35;;;7.40;99.90;;;;;;5113041;28;20040;-65
2022/12/22 12:53:28;;;;;;;18.67;6.65;;;7.40;99.90;;;;;;5088970;28;20047;-65
2022/12/22 12:55:57;;;;;;;23.33;7.47;;;7.40;99.90;;;;;;5093294;28;20036;-66
2022/12/22 12:58:36;;;;;;;17.02;7.63;;;7.50;99.90;;;;;;5110275;28;20067;-66
2022/12/22 13:01:32;;;;;;;17.55;7.13;;;7.60;99.90;;;;;;5114106;28;20042;-65
2022/12/22 13:03:58;;;;;;;15.05;7.40;;;7.70;99.90;;;;;;5093374;28;20080;-64
2022/12/22 13:06:45;;;;;;;21.30;7.68;;;7.70;99.90;;;;;;5076872;28;20499;-66
2022/12/22 13:09:20;;;;;;;18.75;6.95;;;7.80;99.90;;;;;;5112897;28;20043;-65
2022/12/22 13:11:49;;;;;;;18.17;7.82;;;7.80;99.90;;;;;;5111167;28;20517;-64
2022/12/22 13:14:53;;;;;;;21.15;8.13;;;7.80;99.90;;;;;;5112968;28;20055;-65
2022/12/22 13:17:36;;;;;;;20.23;8.35;;;7.90;99.90;;;;;;5113152;28;20066;-65
2022/12/22 13:20:04;;;;;;;18.42;8.45;;;7.90;99.90;;;;;;5094413;28;20169;-65
2022/12/22 13:22:29;;;;;;;18.40;8.68;;;8.00;99.90;;;;;;5110991;28;20039;-67
2022/12/22 13:24:56;;;;;;;21.23;8.70;;;8.00;99.90;;;;;;5112675;28;20060;-67
2022/12/22 13:27:22;;;;;;;23.15;9.00;;;8.10;99.90;;;;;;5111982;28;20039;-65
2022/12/22 13:29:50;;;;;;;19.77;8.65;;;8.00;99.90;;;;;;5112672;28;20062;-66
2022/12/22 13:32:31;;;;;;;20.35;8.68;;;8.00;99.90;;;;;;5109876;28;20518;-65
2022/12/22 13:35:17;;;;;;;20.95;8.77;;;8.00;99.90;;;;;;5111469;28;20040;-67
2022/12/22 13:37:48;;;;;;;21.17;8.98;;;8.00;99.90;;;;;;5093632;28;20088;-67
2022/12/22 13:40:29;;;;;;;14.15;7.85;;;8.00;99.90;;;;;;5111984;28;20042;-67
2022/12/22 13:43:08;;;;;;;20.30;9.05;;;8.00;99.90;;;;;;5108286;28;20085;-67
2022/12/22 13:45:45;;;;;;;20.42;8.77;;;8.10;99.90;;;;;;5112928;28;20113;-67
2022/12/22 13:48:36;;;;;;;23.45;9.07;;;8.10;99.90;;;;;;5113527;28;20043;-66
2022/12/22 13:51:04;;;;;;;17.45;8.75;;;8.20;99.90;;;;;;5099663;28;20097;-66
2022/12/22 13:53:53;;;;;;;20.80;8.95;;;8.20;99.90;;;;;;5093929;28;20127;-66
2022/12/22 13:56:25;;;;;;;18.05;8.85;;;8.20;99.90;;;;;;5111510;28;20050;-64
2022/12/22 13:58:57;;;;;;;16.52;7.88;;;8.30;99.90;;;;;;5111901;28;20040;-65
2022/12/22 14:01:23;;;;;;;15.70;8.32;;;8.30;99.90;;;;;;5112383;28;20079;-66
2022/12/22 14:04:02;;;;;;;16.35;8.55;;;8.30;99.90;;;;;;5111968;28;20074;-64
2022/12/22 14:06:34;;;;;;;15.25;8.15;;;8.30;99.90;;;;;;5109090;28;20160;-66
2022/12/22 14:09:15;;;;;;;16.90;7.65;;;8.30;99.90;;;;;;5112285;28;20065;-64
2022/12/22 14:11:44;;;;;;;13.05;7.20;;;8.30;99.90;;;;;;5110617;28;20035;-65
2022/12/22 14:14:16;;;;;;;19.10;7.75;;;8.30;99.90;;;;;;5111710;28;20054;-66
2022/12/22 14:16:44;;;;;;;20.40;7.88;;;8.30;99.90;;;;;;5098351;28;20469;-66
2022/12/22 14:19:13;;;;;;;13.50;7.65;;;8.30;99.90;;;;;;5098938;28;20031;-67
2022/12/22 14:21:41;;;;;;;17.63;7.47;;;8.20;99.90;;;;;;5104005;28;20043;-65
2022/12/22 14:24:23;;;;;;;17.17;7.82;;;8.30;99.90;;;;;;5090420;28;20043;-65
2022/12/22 14:26:50;;;;;;;16.33;7.40;;;8.20;99.90;;;;;;5108367;28;20481;-66
2022/12/22 14:29:26;;;;;;;21.23;8.45;;;8.20;99.90;;;;;;5103725;28;20127;-66
2022/12/22 14:31:57;;;;;;;21.30;7.55;;;8.10;99.90;;;;;;5107166;28;20043;-66
2022/12/22 14:34:33;;;;;;;20.23;7.15;;;8.10;99.90;;;;;;5112312;28;20044;-65
2022/12/22 14:37:00;;;;;;;21.25;7.80;;;8.10;99.90;;;;;;5110288;28;20058;-65
2022/12/22 14:39:31;;;;;;;12.93;6.57;;;8.00;99.90;;;;;;5109973;28;20463;-64
2022/12/22 14:42:00;;;;;;;15.45;6.55;;;8.00;99.90;;;;;;5093009;28;20044;-64
2022/12/22 14:44:28;;;;;;;16.77;7.15;;;8.10;99.90;;;;;;5091755;28;20040;-66
2022/12/22 14:47:10;;;;;;;15.57;6.45;;;8.00;99.90;;;;;;5105020;28;20437;-65
2022/12/22 14:49:48;;;;;;;23.55;7.25;;;8.10;99.90;;;;;;5084810;28;20511;-66
2022/12/22 14:52:44;;;;;;;14.18;6.57;;;8.10;99.90;;;;;;5105598;28;20043;-65
2022/12/22 14:55:32;;;;;;;15.57;7.63;;;8.00;99.90;;;;;;5096649;28;20052;-65
2022/12/22 14:58:37;;;;;;;16.60;6.00;;;8.00;99.90;;;;;;5102870;28;20043;-64
2022/12/22 15:01:22;;;;;;;17.30;5.93;;;8.00;99.90;;;;;;4998685;28;20046;-66
2022/12/22 15:04:17;;;;;;;13.90;6.30;;;7.90;99.90;;;;;;5093410;28;20040;-66
2022/12/22 15:06:46;;;;;;;10.85;5.95;;;7.90;99.90;;;;;;5103816;28;20174;-66
2022/12/22 15:09:12;;;;;;;15.65;6.50;;;7.80;99.90;;;;;;5095249;28;20043;-66
2022/12/22 15:11:50;;;;;;;18.98;5.93;;;7.80;99.90;;;;;;5102302;28;20044;-66
2022/12/22 15:14:28;;;;;;;15.82;5.97;;;7.70;99.90;;;;;;5096344;28;20383;-67
2022/12/22 15:16:56;;;;;;;11.43;5.65;;;7.60;99.90;;;;;;5093343;28;20487;-66
2022/12/22 15:19:22;;;;;;;14.65;5.97;;;7.50;99.90;;;;;;5111063;28;20107;-65
2022/12/22 15:21:49;;;;;;;20.88;7.28;;;7.50;99.90;;;;;;5100272;28;20039;-66
2022/12/22 15:24:17;;;;;;;27.23;14.93;;;7.50;99.90;;;;;;5110528;28;20040;-66
2022/12/22 15:26:44;;;;;;;19.55;8.30;;;7.50;99.90;;;;;;5085933;28;20072;-66
2022/12/22 15:29:09;;;;;;;18.27;8.15;;;7.50;99.90;;;;;;5097069;28;20059;-65
2022/12/22 15:31:37;;;;;;;16.27;7.45;;;7.50;99.90;;;;;;5101124;28;20055;-66
2022/12/22 15:34:08;;;;;;;15.40;6.10;;;7.50;99.90;;;;;;5077289;28;20088;-66
2022/12/22 15:36:34;;;;;;;18.38;7.47;;;7.50;99.90;;;;;;5110533;28;20429;-66
2022/12/22 15:39:00;;;;;;;19.85;7.97;;;7.50;99.90;;;;;;5113261;28;20046;-66
2022/12/22 15:41:25;;;;;;;17.27;7.28;;;7.50;99.90;;;;;;5113143;28;20040;-66
2022/12/22 15:43:51;;;;;;;15.93;7.35;;;7.60;99.90;;;;;;5101791;28;20031;-66
2022/12/22 15:46:17;;;;;;;23.13;13.38;;;7.50;99.90;;;;;;5113403;28;20153;-64
2022/12/22 15:48:44;;;;;;;21.05;9.52;;;7.50;99.90;;;;;;5109770;28;20042;-65
2022/12/22 15:51:22;;;;;;;20.88;9.07;;;7.60;99.90;;;;;;5110071;28;20118;-65
2022/12/22 15:53:48;;;;;;;18.02;7.40;;;7.60;99.90;;;;;;5108882;28;20046;-66
2022/12/22 15:56:22;;;;;;;17.77;7.18;;;7.60;99.90;;;;;;5110022;28;20070;-66
2022/12/22 15:58:48;;;;;;;20.45;11.27;;;7.50;99.90;;;;;;5110572;28;20035;-64
2022/12/22 16:01:14;;;;;;;16.63;7.47;;;7.50;99.90;;;;;;5111777;28;20040;-65
2022/12/22 16:03:39;;;;;;;18.83;10.77;;;7.50;99.90;;;;;;5107339;28;20039;-66
2022/12/22 16:06:07;;;;;;;18.80;11.32;;;7.40;99.90;;;;;;5110925;28;20123;-66
2022/12/22 16:08:36;;;;;;;18.23;9.65;;;7.40;99.90;;;;;;5111353;28;20047;-66
2022/12/22 16:11:03;;;;;;;16.08;9.57;;;7.40;99.90;;;;;;5092289;28;20044;-66
2022/12/22 16:13:29;;;;;;;20.00;10.95;;;7.50;99.90;;;;;;5107105;28;20040;-66
2022/12/22 16:15:55;;;;;;;14.15;7.55;;;7.50;99.90;;;;;;5107659;28;20055;-66
2022/12/22 16:18:21;;;;;;;19.30;10.48;;;7.50;99.90;;;;;;5114042;28;20528;-66
2022/12/22 16:20:50;;;;;;;16.10;9.02;;;7.50;99.90;;;;;;5110339;28;20039;-66
2022/12/22 16:23:22;;;;;;;18.33;9.10;;;7.50;99.90;;;;;;5112148;28;20032;-66
2022/12/22 16:25:49;;;;;;;17.02;7.78;;;7.50;99.90;;;;;;5109400;28;20094;-66
2022/12/22 16:28:22;;;;;;;17.17;8.65;;;7.50;99.90;;;;;;5107838;28;20051;-64
2022/12/22 16:30:48;;;;;;;16.65;7.95;;;7.50;99.90;;;;;;5111940;28;20379;-65
2022/12/22 16:33:15;;;;;;;16.92;8.52;;;7.50;99.90;;;;;;5113714;28;20099;-66
2022/12/22 16:35:41;;;;;;;16.33;8.63;;;7.50;99.90;;;;;;5077348;28;20053;-65
2022/12/22 16:38:07;;;;;;;16.27;9.15;;;7.50;99.90;;;;;;5110640;28;20043;-66
2022/12/22 16:40:38;;;;;;;20.55;10.30;;;7.50;99.90;;;;;;5114070;28;20097;-66
2022/12/22 16:43:18;;;;;;;20.02;10.32;;;7.50;99.90;;;;;;5111823;28;20406;-65